createdAt,value
2022-09-21T00:12:44.073Z,992.1
2022-09-21T00:27:14.615Z,992.2
2022-09-21T00:41:41.570Z,992.3
2022-09-21T00:56:11.562Z,992.4
2022-09-21T01:10:41.924Z,992.4
2022-09-21T01:25:10.257Z,992.4
2022-09-21T01:39:40.712Z,992.4
2022-09-21T01:54:17.197Z,992.4
2022-09-21T02:08:49.051Z,992.4
2022-09-21T02:23:21.132Z,992.4
2022-09-21T02:37:57.436Z,992.4
2022-09-21T02:52:19.904Z,992.4
2022-09-21T03:06:46.669Z,992.3
2022-09-21T03:21:15.620Z,992.3
2022-09-21T03:35:44.905Z,992.4
2022-09-21T03:50:15.844Z,992.4
2022-09-21T04:04:45.977Z,992.4
2022-09-21T04:19:15.185Z,992.4
2022-09-21T04:33:45.950Z,992.4
2022-09-21T04:48:17.666Z,992.5
2022-09-21T05:02:46.897Z,992.6
2022-09-21T05:17:17.206Z,992.7
2022-09-21T05:31:44.903Z,992.9
2022-09-21T05:46:16.010Z,993
2022-09-21T06:00:47.373Z,993
2022-09-21T06:15:17.642Z,993.2
2022-09-21T06:29:47.663Z,993.2
2022-09-21T06:44:18.490Z,993.2
2022-09-21T06:58:46.848Z,993.2
2022-09-21T07:13:18.405Z,993.2
2022-09-21T07:27:50.485Z,993.3
2022-09-21T07:42:28.257Z,993.3
2022-09-21T07:57:02.023Z,993.3
2022-09-21T08:11:32.096Z,993.3
2022-09-21T08:26:26.459Z,993.2
2022-09-21T08:41:05.630Z,993.2
2022-09-21T08:55:36.844Z,993.3
2022-09-21T09:10:03.481Z,993.3
2022-09-21T09:24:38.968Z,993.2
2022-09-21T09:39:18.621Z,993.3
2022-09-21T09:53:47.753Z,993.1
2022-09-21T10:08:11.176Z,993.2
2022-09-21T10:22:43.434Z,993.1
2022-09-21T10:37:15.408Z,993
2022-09-21T10:51:46.601Z,992.9
2022-09-21T11:06:18.783Z,992.9
2022-09-21T11:20:48.207Z,992.8
2022-09-21T11:35:25.812Z,992.7
2022-09-21T11:50:31.564Z,992.6
2022-09-21T12:04:49.330Z,992.4
2022-09-21T12:19:22.764Z,992.4
2022-09-21T12:33:49.559Z,992.4
2022-09-21T12:48:18.603Z,992.4
2022-09-21T13:02:49.373Z,992.1
2022-09-21T13:17:20.260Z,992
2022-09-21T13:31:50.421Z,992
2022-09-21T13:46:26.624Z,991.9
2022-09-21T14:00:57.681Z,991.7
2022-09-21T14:15:30.112Z,991.7
2022-09-21T14:30:07.705Z,991.7
2022-09-21T14:44:30.325Z,991.6
2022-09-21T14:58:58.559Z,991.4
2022-09-21T15:13:27.836Z,991.4
2022-09-21T15:27:57.449Z,991.3
2022-09-21T15:42:26.713Z,991.2
2022-09-21T15:56:57.419Z,991.2
2022-09-21T16:11:25.476Z,991.1
2022-09-21T16:25:59.584Z,991.1
2022-09-21T16:40:29.598Z,991.2
2022-09-21T16:55:05.953Z,991.1
2022-09-21T17:09:38.848Z,991.2
2022-09-21T17:24:02.681Z,991.2
2022-09-21T17:38:30.436Z,991.4
2022-09-21T17:52:59.362Z,991.4
2022-09-21T18:07:27.351Z,991.4
2022-09-21T18:22:01.189Z,991.5
2022-09-21T18:36:32.679Z,991.7
2022-09-21T18:51:00.406Z,991.7
2022-09-21T19:05:27.588Z,991.7
2022-09-21T19:19:58.867Z,991.7
2022-09-21T19:34:27.186Z,991.7
2022-09-21T19:48:56.149Z,991.7
2022-09-21T20:03:32.309Z,991.6
2022-09-21T20:17:58.276Z,991.6
2022-09-21T20:32:28.023Z,991.6
2022-09-21T20:46:59.146Z,991.6
2022-09-21T21:01:27.865Z,991.7
2022-09-21T21:15:57.509Z,991.6
2022-09-21T21:30:27.283Z,991.6
2022-09-21T21:44:57.944Z,991.8
2022-09-21T21:59:34.098Z,991.7
2022-09-21T22:14:04.836Z,991.8
2022-09-21T22:28:30.465Z,991.6
2022-09-21T22:43:05.716Z,991.6
2022-09-21T22:57:39.540Z,991.6
2022-09-21T23:12:05.116Z,991.5
2022-09-21T23:26:34.834Z,991.5
2022-09-21T23:41:05.731Z,991.5
2022-09-21T23:55:34.640Z,991.5
